Time;durP1;ratioP1;P1;durP2;ratioP2;P2;SDS_P1;SDS_P2;PMS_P1;PMS_P2;Temp;Humidity;BMP_temperature;BMP_pressure;BME280_temperature;BME280_humidity;BME280_pressure;Samples;Min_cycle;Max_cycle;Signal;HPM_P1;HPM_P2
2022/07/16 00:02:28;;;;;;;8.68;3.05;;;18.70;99.90;;;;;;5008458;28;20409;-77
2022/07/16 00:04:53;;;;;;;6.88;3.10;;;18.70;99.90;;;;;;5010245;28;20022;-77
2022/07/16 00:07:19;;;;;;;4.57;2.80;;;18.60;99.90;;;;;;5010436;28;20026;-76
2022/07/16 00:09:46;;;;;;;6.47;3.40;;;18.60;99.90;;;;;;5010490;28;20471;-77
2022/07/16 00:12:11;;;;;;;4.63;2.72;;;18.60;99.90;;;;;;5010776;28;20032;-77
2022/07/16 00:14:37;;;;;;;5.53;3.08;;;18.60;99.90;;;;;;5005733;28;20022;-77
2022/07/16 00:17:03;;;;;;;7.80;2.83;;;18.60;99.90;;;;;;5006246;28;20038;-77
2022/07/16 00:19:29;;;;;;;7.45;3.17;;;18.60;99.90;;;;;;5014077;28;20524;-77
2022/07/16 00:21:56;;;;;;;3.75;2.75;;;18.50;99.90;;;;;;5014394;28;20026;-77
2022/07/16 00:24:22;;;;;;;5.05;2.97;;;18.50;99.90;;;;;;5014224;28;20108;-77
2022/07/16 00:26:48;;;;;;;5.22;3.15;;;18.50;99.90;;;;;;5014395;28;20034;-77
2022/07/16 00:29:15;;;;;;;6.95;3.10;;;18.50;99.90;;;;;;5014695;28;20025;-77
2022/07/16 00:31:42;;;;;;;5.40;3.20;;;18.40;99.90;;;;;;5012698;28;20022;-77
2022/07/16 00:34:08;;;;;;;6.55;3.28;;;18.40;99.90;;;;;;5014484;28;20467;-76
2022/07/16 00:36:35;;;;;;;8.63;3.90;;;18.40;99.90;;;;;;5014370;28;20097;-77
2022/07/16 00:39:01;;;;;;;5.97;3.83;;;18.30;99.90;;;;;;5014098;28;20026;-77
2022/07/16 00:41:27;;;;;;;7.53;3.60;;;18.30;99.90;;;;;;5013816;28;20018;-77
2022/07/16 00:43:59;;;;;;;7.15;4.00;;;18.30;99.90;;;;;;5013827;28;20452;-77
2022/07/16 00:46:25;;;;;;;5.63;3.90;;;18.30;99.90;;;;;;5012095;28;20117;-77
2022/07/16 00:48:50;;;;;;;6.22;3.60;;;18.30;99.90;;;;;;5006793;28;20593;-77
2022/07/16 00:51:16;;;;;;;6.25;3.05;;;18.30;99.90;;;;;;5006899;28;20022;-77
2022/07/16 00:53:43;;;;;;;4.30;2.92;;;18.30;99.90;;;;;;5013901;28;20058;-77
2022/07/16 00:56:11;;;;;;;6.60;3.33;;;18.20;99.90;;;;;;4999803;28;20026;-77
2022/07/16 00:58:39;;;;;;;5.82;3.22;;;18.30;99.90;;;;;;5013542;28;20052;-77
2022/07/16 01:01:05;;;;;;;5.47;3.00;;;18.30;99.90;;;;;;5002696;28;20478;-77
2022/07/16 01:03:32;;;;;;;6.05;3.20;;;18.30;99.90;;;;;;5012734;28;20563;-77
2022/07/16 01:05:57;;;;;;;6.53;3.50;;;18.20;99.90;;;;;;5013497;28;20025;-77
2022/07/16 01:08:24;;;;;;;4.88;3.30;;;18.20;99.90;;;;;;5013372;28;20026;-77
2022/07/16 01:10:50;;;;;;;9.15;3.22;;;18.20;99.90;;;;;;5013445;28;20105;-77
2022/07/16 01:13:17;;;;;;;7.43;3.50;;;18.30;99.90;;;;;;5013721;28;20481;-77
2022/07/16 01:15:42;;;;;;;7.35;2.80;;;18.30;99.90;;;;;;5011175;28;20041;-77
2022/07/16 01:18:08;;;;;;;6.57;2.97;;;18.30;99.90;;;;;;5013360;28;20387;-77
2022/07/16 01:20:34;;;;;;;7.45;3.15;;;18.30;99.90;;;;;;5013020;28;20496;-77
2022/07/16 01:23:00;;;;;;;9.45;3.03;;;18.40;99.90;;;;;;5013209;28;20033;-77
2022/07/16 01:25:26;;;;;;;7.50;3.40;;;18.40;99.90;;;;;;5012829;28;20049;-76
2022/07/16 01:27:52;;;;;;;6.03;3.17;;;18.40;99.90;;;;;;5013043;28;20026;-77
2022/07/16 01:30:18;;;;;;;7.32;3.13;;;18.40;99.90;;;;;;5010780;28;20254;-77
2022/07/16 01:32:43;;;;;;;7.40;2.80;;;18.40;99.90;;;;;;5006365;28;20456;-77
2022/07/16 01:35:09;;;;;;;6.65;2.97;;;18.40;99.90;;;;;;5006714;28;20397;-76
2022/07/16 01:37:36;;;;;;;5.65;2.92;;;18.40;99.90;;;;;;4997278;28;20065;-77
2022/07/16 01:40:02;;;;;;;13.13;3.53;;;18.40;99.90;;;;;;5013151;28;20045;-77
2022/07/16 01:42:28;;;;;;;9.00;3.10;;;18.50;99.90;;;;;;5012638;28;20068;-76
2022/07/16 01:44:53;;;;;;;9.02;3.10;;;18.50;99.90;;;;;;5004925;28;20027;-78
2022/07/16 01:47:19;;;;;;;11.32;3.20;;;18.50;99.90;;;;;;5006352;28;20501;-77
2022/07/16 01:49:45;;;;;;;8.52;3.30;;;18.50;99.90;;;;;;5007420;28;20026;-77
2022/07/16 01:52:21;;;;;;;6.82;2.70;;;18.50;99.90;;;;;;5004571;28;20037;-77
2022/07/16 01:54:49;;;;;;;10.73;3.15;;;18.50;99.90;;;;;;5007619;28;20102;-77
2022/07/16 01:57:15;;;;;;;6.13;2.90;;;18.60;99.90;;;;;;5002494;28;20052;-77
2022/07/16 01:59:42;;;;;;;8.75;3.08;;;18.60;99.90;;;;;;5010435;28;20033;-77
2022/07/16 02:02:08;;;;;;;7.75;2.80;;;18.50;99.90;;;;;;5012414;28;20505;-77
2022/07/16 02:04:34;;;;;;;6.80;2.40;;;18.50;99.90;;;;;;5012539;28;20104;-77
2022/07/16 02:06:59;;;;;;;6.47;2.28;;;18.50;99.90;;;;;;5012213;28;20041;-77
2022/07/16 02:09:26;;;;;;;4.82;2.60;;;18.50;99.90;;;;;;5012175;28;20033;-77
2022/07/16 02:11:51;;;;;;;7.05;2.78;;;18.50;99.90;;;;;;5012143;28;20541;-77
2022/07/16 02:14:17;;;;;;;8.82;2.55;;;18.40;99.90;;;;;;5005262;28;20050;-77
2022/07/16 02:16:43;;;;;;;8.98;2.75;;;18.40;99.90;;;;;;5006429;28;20101;-77
2022/07/16 02:19:08;;;;;;;8.35;2.90;;;18.40;99.90;;;;;;5012379;28;20026;-77
2022/07/16 02:21:34;;;;;;;4.90;2.50;;;18.30;99.90;;;;;;5012237;28;20026;-77
2022/07/16 02:24:00;;;;;;;6.20;2.70;;;18.30;99.90;;;;;;4994430;28;20018;-77
2022/07/16 02:26:26;;;;;;;7.43;2.20;;;18.30;99.90;;;;;;5010366;28;20125;-77
2022/07/16 02:28:52;;;;;;;7.15;2.33;;;18.20;99.90;;;;;;5007199;28;20443;-77
2022/07/16 02:31:18;;;;;;;7.47;2.22;;;18.10;99.90;;;;;;5006452;28;20411;-77
2022/07/16 02:33:44;;;;;;;6.15;2.58;;;18.10;99.90;;;;;;5001037;28;20018;-77
2022/07/16 02:36:10;;;;;;;5.82;2.00;;;18.10;99.90;;;;;;5011862;28;20492;-77
2022/07/16 02:38:36;;;;;;;4.68;1.95;;;18.10;99.90;;;;;;5011102;28;20501;-77
2022/07/16 02:41:01;;;;;;;3.22;2.00;;;18.10;99.90;;;;;;5011736;28;20091;-77
2022/07/16 02:43:27;;;;;;;11.07;2.03;;;18.00;99.90;;;;;;5008311;28;20161;-77
2022/07/16 02:45:52;;;;;;;5.97;1.73;;;17.90;99.90;;;;;;5002428;28;20033;-77
2022/07/16 02:48:18;;;;;;;3.80;1.23;;;17.90;99.90;;;;;;5011359;28;20573;-77
2022/07/16 02:50:43;;;;;;;6.38;1.55;;;17.90;99.90;;;;;;5010345;28;20501;-77
2022/07/16 02:53:09;;;;;;;8.57;1.60;;;17.80;99.90;;;;;;5011394;28;20033;-77
2022/07/16 02:55:35;;;;;;;6.45;1.50;;;17.80;99.90;;;;;;5001982;28;20529;-77
2022/07/16 02:58:01;;;;;;;3.50;1.50;;;17.80;99.90;;;;;;5003370;28;20073;-77
2022/07/16 03:00:28;;;;;;;3.35;1.38;;;17.80;99.90;;;;;;4999744;28;20030;-77
2022/07/16 03:02:55;;;;;;;5.18;1.40;;;17.80;99.90;;;;;;4992641;28;20022;-77
2022/07/16 03:05:21;;;;;;;6.38;1.73;;;17.70;99.90;;;;;;4993904;28;20387;-77
2022/07/16 03:07:47;;;;;;;3.38;1.50;;;17.70;99.90;;;;;;5000880;28;20030;-77
2022/07/16 03:10:13;;;;;;;6.10;1.60;;;17.70;99.90;;;;;;5006683;28;20030;-77
2022/07/16 03:12:39;;;;;;;6.43;1.80;;;17.70;99.90;;;;;;5003586;28;20054;-77
2022/07/16 03:15:06;;;;;;;8.38;1.88;;;17.70;99.90;;;;;;5011092;28;20493;-77
2022/07/16 03:17:32;;;;;;;5.05;1.55;;;17.70;99.90;;;;;;5011203;28;20120;-77
2022/07/16 03:19:57;;;;;;;6.40;2.25;;;17.60;99.90;;;;;;5011064;28;20105;-77
2022/07/16 03:22:23;;;;;;;5.15;1.80;;;17.60;99.90;;;;;;5011176;28;20026;-77
2022/07/16 03:24:48;;;;;;;4.15;1.60;;;17.60;99.90;;;;;;5010858;28;20535;-77
2022/07/16 03:27:14;;;;;;;4.75;1.65;;;17.60;99.90;;;;;;5010489;28;20022;-77
2022/07/16 03:29:40;;;;;;;6.75;1.98;;;17.50;99.90;;;;;;5005717;28;20018;-77
2022/07/16 03:32:06;;;;;;;3.45;1.70;;;17.50;99.90;;;;;;5011193;28;20474;-77
2022/07/16 03:34:32;;;;;;;4.15;1.73;;;17.50;99.90;;;;;;4999254;28;20018;-77
2022/07/16 03:36:58;;;;;;;5.43;2.17;;;17.50;99.90;;;;;;5009354;28;20029;-77
2022/07/16 03:39:25;;;;;;;5.18;1.90;;;17.50;99.90;;;;;;5010859;28;20390;-77
2022/07/16 03:41:50;;;;;;;3.83;1.60;;;17.50;99.90;;;;;;5010963;28;20030;-77
2022/07/16 03:44:16;;;;;;;5.35;1.70;;;17.50;99.90;;;;;;5009356;28;20029;-77
2022/07/16 03:46:42;;;;;;;5.07;1.75;;;17.50;99.90;;;;;;5011160;28;20026;-78
2022/07/16 03:49:08;;;;;;;4.90;1.88;;;17.50;99.90;;;;;;5010609;28;20026;-77
2022/07/16 03:51:34;;;;;;;4.15;1.75;;;17.50;99.90;;;;;;5009873;28;20018;-76
2022/07/16 03:54:00;;;;;;;3.80;1.77;;;17.50;99.90;;;;;;5010714;28;20466;-77
2022/07/16 03:56:26;;;;;;;6.18;1.80;;;17.50;99.90;;;;;;5010683;28;20034;-77
2022/07/16 03:58:52;;;;;;;3.67;1.92;;;17.50;99.90;;;;;;5007786;28;20036;-77
2022/07/16 04:01:18;;;;;;;8.40;2.08;;;17.60;99.90;;;;;;5010619;28;20037;-76
2022/07/16 04:03:44;;;;;;;5.35;1.73;;;17.60;99.90;;;;;;5010293;28;20022;-76
2022/07/16 04:06:09;;;;;;;6.25;1.90;;;17.60;99.90;;;;;;5010493;28;20025;-76
2022/07/16 04:08:35;;;;;;;5.78;1.90;;;17.50;99.90;;;;;;4999298;28;20030;-76
2022/07/16 04:11:01;;;;;;;6.60;1.70;;;17.50;99.90;;;;;;5007703;28;20542;-77
2022/07/16 04:13:27;;;;;;;3.03;1.63;;;17.50;99.90;;;;;;5002075;28;20034;-76
2022/07/16 04:15:53;;;;;;;9.00;1.70;;;17.50;99.90;;;;;;5010310;28;20063;-76
2022/07/16 04:18:20;;;;;;;2.45;1.33;;;17.50;99.90;;;;;;5009127;28;20095;-77
2022/07/16 04:20:46;;;;;;;5.70;1.67;;;17.50;99.90;;;;;;5010630;28;20022;-76
2022/07/16 04:23:11;;;;;;;3.60;1.58;;;17.50;99.90;;;;;;5010272;28;20014;-78
2022/07/16 04:25:37;;;;;;;8.25;1.80;;;17.40;99.90;;;;;;4999159;28;20541;-77
2022/07/16 04:28:03;;;;;;;3.65;1.50;;;17.40;99.90;;;;;;5002621;28;20433;-77
2022/07/16 04:30:28;;;;;;;4.95;1.40;;;17.40;99.90;;;;;;5000036;28;20022;-77
2022/07/16 04:32:54;;;;;;;5.57;1.55;;;17.40;99.90;;;;;;5010343;28;20028;-77
2022/07/16 04:35:19;;;;;;;6.55;1.65;;;17.40;99.90;;;;;;5010248;28;20025;-77
2022/07/16 04:37:45;;;;;;;5.90;1.50;;;17.40;99.90;;;;;;5010254;28;20036;-77
2022/07/16 04:40:12;;;;;;;3.03;1.30;;;17.40;99.90;;;;;;5010556;28;20022;-76
2022/07/16 04:42:39;;;;;;;3.55;1.60;;;17.40;99.90;;;;;;5008226;28;20034;-77
2022/07/16 04:45:05;;;;;;;4.38;1.50;;;17.40;99.90;;;;;;5010248;28;20022;-77
2022/07/16 04:47:32;;;;;;;3.03;1.25;;;17.30;99.90;;;;;;5010486;28;20022;-77
2022/07/16 04:49:58;;;;;;;7.40;1.50;;;17.30;99.90;;;;;;5010027;28;20018;-77
2022/07/16 04:52:24;;;;;;;5.22;1.50;;;17.30;99.90;;;;;;5010088;28;20034;-76
2022/07/16 04:54:49;;;;;;;4.50;1.50;;;17.30;99.90;;;;;;5010016;28;20084;-77
2022/07/16 04:57:15;;;;;;;3.45;1.58;;;17.30;99.90;;;;;;5001996;28;20088;-77
2022/07/16 04:59:41;;;;;;;6.22;1.40;;;17.20;99.90;;;;;;5009979;28;20108;-77
2022/07/16 05:04:50;;;;;;;7.30;1.65;;;17.20;99.90;;;;;;5006235;28;20025;-77
2022/07/16 05:07:16;;;;;;;4.40;1.58;;;17.30;99.90;;;;;;4999311;28;20034;-77
2022/07/16 05:09:41;;;;;;;4.07;1.42;;;17.30;99.90;;;;;;4999988;28;20026;-77
2022/07/16 05:12:07;;;;;;;5.75;1.65;;;17.30;99.90;;;;;;5010947;28;20398;-77
2022/07/16 05:14:32;;;;;;;4.82;1.50;;;17.30;99.90;;;;;;5012055;28;20088;-77
2022/07/16 05:16:58;;;;;;;7.00;1.70;;;17.30;99.90;;;;;;5003555;28;20037;-77
2022/07/16 05:19:24;;;;;;;5.25;1.50;;;17.30;99.90;;;;;;5009731;28;20033;-78
2022/07/16 05:21:52;;;;;;;4.78;1.50;;;17.30;99.90;;;;;;5013317;28;20026;-78
2022/07/16 05:24:18;;;;;;;6.32;1.58;;;17.40;99.90;;;;;;5013301;28;20032;-77
2022/07/16 05:26:44;;;;;;;6.68;1.55;;;17.30;99.90;;;;;;4999749;28;20415;-77
2022/07/16 05:29:09;;;;;;;4.80;1.60;;;17.40;99.90;;;;;;5005996;28;20037;-77
2022/07/16 05:31:35;;;;;;;6.85;1.63;;;17.40;99.90;;;;;;5012018;28;20465;-77
2022/07/16 05:34:00;;;;;;;5.55;1.50;;;17.40;99.90;;;;;;5013244;28;20022;-77
2022/07/16 05:36:26;;;;;;;4.85;1.77;;;17.40;99.90;;;;;;5013359;28;20180;-77
2022/07/16 05:38:52;;;;;;;8.48;1.40;;;17.40;99.90;;;;;;5013183;28;20030;-77
2022/07/16 05:41:17;;;;;;;6.88;1.50;;;17.40;99.90;;;;;;5011218;28;20037;-78
2022/07/16 05:43:43;;;;;;;5.93;2.15;;;17.40;99.90;;;;;;5013469;28;20032;-77
2022/07/16 05:46:09;;;;;;;5.40;1.55;;;17.40;99.90;;;;;;5014477;28;20052;-77
2022/07/16 05:48:34;;;;;;;4.80;1.70;;;17.50;99.90;;;;;;5013176;28;20018;-77
2022/07/16 05:51:00;;;;;;;6.70;1.60;;;17.60;99.90;;;;;;5013234;28;20061;-78
2022/07/16 05:53:26;;;;;;;6.18;1.63;;;17.50;99.90;;;;;;5013372;28;20022;-77
2022/07/16 05:55:51;;;;;;;4.95;1.80;;;17.60;99.90;;;;;;5002715;28;20034;-78
2022/07/16 05:58:17;;;;;;;5.57;1.80;;;17.60;99.90;;;;;;5007337;28;20041;-77
2022/07/16 06:00:42;;;;;;;4.07;1.55;;;17.60;99.90;;;;;;5012645;28;20489;-78
2022/07/16 06:03:08;;;;;;;4.72;1.60;;;17.70;99.90;;;;;;5012874;28;20431;-77
2022/07/16 06:05:34;;;;;;;6.15;1.67;;;17.70;99.90;;;;;;4998691;28;20053;-78
2022/07/16 06:08:00;;;;;;;5.53;1.50;;;17.70;99.90;;;;;;5006254;28;20045;-77
2022/07/16 06:10:26;;;;;;;10.10;1.80;;;17.80;99.90;;;;;;4997389;28;20022;-77
2022/07/16 06:12:51;;;;;;;8.80;1.67;;;17.80;99.90;;;;;;5010675;28;20026;-78
2022/07/16 06:15:17;;;;;;;6.45;1.88;;;17.80;99.90;;;;;;5012167;28;20022;-78
2022/07/16 06:17:43;;;;;;;4.07;1.40;;;17.80;99.90;;;;;;5015713;28;20156;-78
2022/07/16 06:20:10;;;;;;;5.57;1.65;;;17.80;99.90;;;;;;5012640;28;20057;-78
2022/07/16 06:22:36;;;;;;;9.90;1.70;;;17.80;99.90;;;;;;5011944;28;20022;-77
2022/07/16 06:25:02;;;;;;;6.05;1.30;;;17.90;99.90;;;;;;4999550;28;20050;-78
2022/07/16 06:27:28;;;;;;;3.53;1.40;;;17.90;99.90;;;;;;5003870;28;20026;-78
2022/07/16 06:29:54;;;;;;;8.10;1.60;;;18.00;99.90;;;;;;5001070;28;20036;-78
2022/07/16 06:32:19;;;;;;;8.20;1.40;;;18.10;99.90;;;;;;5002744;28;20412;-76
2022/07/16 06:34:45;;;;;;;6.70;1.55;;;18.10;99.90;;;;;;5002088;28;20022;-77
2022/07/16 06:37:10;;;;;;;5.90;1.23;;;18.20;99.90;;;;;;5002161;28;20456;-78
2022/07/16 06:39:36;;;;;;;4.53;1.15;;;18.20;99.90;;;;;;5006312;28;20028;-78
2022/07/16 06:42:02;;;;;;;5.60;1.30;;;18.30;99.90;;;;;;5008263;28;20114;-78
2022/07/16 06:44:27;;;;;;;3.28;1.13;;;18.30;99.90;;;;;;5005789;28;20018;-77
2022/07/16 06:46:53;;;;;;;6.10;1.27;;;18.40;99.90;;;;;;5005056;28;20026;-77
2022/07/16 06:49:19;;;;;;;7.97;1.35;;;18.30;99.90;;;;;;5006862;28;20387;-78
2022/07/16 06:51:45;;;;;;;4.03;1.23;;;18.30;99.90;;;;;;5001547;28;20045;-78
2022/07/16 06:54:11;;;;;;;9.32;1.40;;;18.30;99.90;;;;;;5001162;28;20094;-78
2022/07/16 06:56:36;;;;;;;6.30;1.67;;;18.40;99.90;;;;;;5004632;28;20025;-78
2022/07/16 06:59:02;;;;;;;3.53;1.27;;;18.40;99.90;;;;;;5011692;28;20022;-77
2022/07/16 07:01:28;;;;;;;8.40;1.10;;;18.40;99.90;;;;;;5009464;28;20029;-78
2022/07/16 07:03:54;;;;;;;4.30;1.25;;;18.50;99.90;;;;;;5008490;28;20026;-77
2022/07/16 07:06:19;;;;;;;6.18;1.17;;;18.60;99.90;;;;;;4999499;28;20030;-77
2022/07/16 07:08:45;;;;;;;6.15;1.10;;;18.70;99.90;;;;;;5002187;28;20058;-77
2022/07/16 07:11:10;;;;;;;6.82;1.05;;;18.80;99.90;;;;;;5003679;28;20018;-78
2022/07/16 07:13:37;;;;;;;6.20;1.10;;;18.80;99.90;;;;;;5004892;28;20076;-78
2022/07/16 07:16:04;;;;;;;3.85;0.82;;;18.80;99.90;;;;;;5004569;28;20014;-78
2022/07/16 07:18:29;;;;;;;3.78;1.00;;;18.90;99.90;;;;;;4992195;28;20050;-78
2022/07/16 07:20:55;;;;;;;3.53;0.95;;;18.90;99.90;;;;;;4998061;28;20018;-78
2022/07/16 07:23:21;;;;;;;3.97;1.25;;;19.00;99.90;;;;;;5012186;28;20117;-77
2022/07/16 07:25:47;;;;;;;5.38;0.95;;;19.10;99.90;;;;;;5011637;28;20073;-76
2022/07/16 07:28:12;;;;;;;5.15;1.00;;;19.10;99.90;;;;;;5001607;28;20457;-76
2022/07/16 07:30:38;;;;;;;4.35;1.05;;;19.20;99.90;;;;;;5002981;28;20061;-77
2022/07/16 07:33:03;;;;;;;5.20;1.00;;;19.30;99.90;;;;;;5003543;28;20018;-77
2022/07/16 07:35:29;;;;;;;4.97;0.90;;;19.30;99.90;;;;;;4999181;28;20122;-79
2022/07/16 07:37:54;;;;;;;5.95;1.30;;;19.50;99.90;;;;;;5001788;28;20026;-78
2022/07/16 07:40:20;;;;;;;5.43;0.95;;;19.60;99.90;;;;;;4996261;28;20035;-78
2022/07/16 07:42:46;;;;;;;4.43;0.98;;;19.70;99.90;;;;;;5002489;28;20474;-82
2022/07/16 07:45:11;;;;;;;5.38;1.20;;;19.70;99.90;;;;;;4999754;28;20093;-78
2022/07/16 07:47:37;;;;;;;7.28;1.20;;;19.70;99.90;;;;;;5009597;28;20025;-81
2022/07/16 07:50:07;;;;;;;5.07;1.25;;;19.80;99.90;;;;;;5007250;28;20022;-79
2022/07/16 07:52:32;;;;;;;6.18;1.33;;;19.90;99.90;;;;;;4998445;28;20018;-78
2022/07/16 07:54:58;;;;;;;8.75;1.20;;;20.00;99.90;;;;;;5004210;28;20173;-78
2022/07/16 07:57:24;;;;;;;6.03;1.08;;;20.20;99.90;;;;;;5005831;28;20025;-78
2022/07/16 07:59:50;;;;;;;7.18;1.20;;;20.30;99.40;;;;;;5002884;28;20222;-81
2022/07/16 08:02:16;;;;;;;6.45;1.25;;;20.40;98.90;;;;;;5008226;28;20305;-80
2022/07/16 08:04:41;;;;;;;7.10;1.10;;;20.50;98.80;;;;;;5008905;28;20030;-81
2022/07/16 08:07:07;;;;;;;6.03;1.10;;;20.60;98.10;;;;;;4999726;28;20475;-80
2022/07/16 08:09:33;;;;;;;6.07;1.40;;;20.70;97.40;;;;;;5006250;28;20053;-81
2022/07/16 08:11:59;;;;;;;3.58;1.05;;;20.80;97.60;;;;;;4999248;28;20037;-80
2022/07/16 08:14:25;;;;;;;5.43;1.13;;;21.00;97.50;;;;;;5017734;28;20059;-79
2022/07/16 08:16:50;;;;;;;4.75;1.10;;;21.20;96.00;;;;;;5016633;28;20030;-79
2022/07/16 08:19:16;;;;;;;6.65;1.20;;;21.20;96.50;;;;;;4998528;28;20026;-81
2022/07/16 08:21:42;;;;;;;4.18;1.02;;;21.20;95.00;;;;;;4997462;28;20026;-80
2022/07/16 08:26:51;;;;;;;5.57;1.20;;;21.30;93.50;;;;;;5011497;28;20406;-79
2022/07/16 08:29:17;;;;;;;4.85;0.90;;;21.50;93.20;;;;;;5010588;28;20022;-80
2022/07/16 08:31:43;;;;;;;4.38;1.20;;;21.60;91.80;;;;;;5014526;28;20031;-81
2022/07/16 08:34:08;;;;;;;5.43;1.13;;;21.60;90.60;;;;;;5005028;28;20034;-81
2022/07/16 08:36:36;;;;;;;4.28;1.02;;;21.60;90.80;;;;;;5021994;28;20088;-81
2022/07/16 08:39:02;;;;;;;3.28;1.00;;;21.70;90.70;;;;;;5007743;28;20026;-81
2022/07/16 08:41:29;;;;;;;3.83;0.82;;;21.80;90.90;;;;;;5006976;28;20030;-78
2022/07/16 08:43:55;;;;;;;5.97;1.00;;;22.00;89.60;;;;;;5005802;28;20110;-86
2022/07/16 08:46:21;;;;;;;2.90;1.10;;;22.00;88.20;;;;;;5015871;28;20030;-84
2022/07/16 08:48:51;;;;;;;4.97;1.05;;;21.90;86.30;;;;;;4996617;28;20030;-82
2022/07/16 08:51:30;;;;;;;4.03;1.00;;;21.90;86.40;;;;;;4995806;28;20015;-78
2022/07/16 08:54:12;;;;;;;6.00;1.13;;;21.80;86.40;;;;;;5009144;28;20399;-77
2022/07/16 08:56:37;;;;;;;4.05;0.90;;;21.80;86.00;;;;;;4996874;28;20364;-77
2022/07/16 08:59:05;;;;;;;6.13;1.05;;;21.90;86.20;;;;;;4994446;28;20037;-76
2022/07/16 09:01:32;;;;;;;4.63;1.00;;;21.90;85.90;;;;;;4994371;28;20034;-77
2022/07/16 09:03:59;;;;;;;5.20;1.20;;;22.00;84.60;;;;;;5008527;28;20014;-77
2022/07/16 09:06:25;;;;;;;4.70;0.90;;;21.90;85.00;;;;;;5000578;28;20022;-77
2022/07/16 09:08:52;;;;;;;6.65;1.20;;;21.90;85.30;;;;;;4995009;28;20038;-77
2022/07/16 09:11:21;;;;;;;5.63;0.98;;;22.00;85.60;;;;;;5006746;28;20457;-77
2022/07/16 09:14:07;;;;;;;3.22;0.85;;;22.20;86.40;;;;;;5000238;28;20022;-77
2022/07/16 09:16:36;;;;;;;2.10;0.98;;;22.20;82.80;;;;;;4993420;28;20479;-76
2022/07/16 09:19:10;;;;;;;4.35;1.00;;;22.30;82.80;;;;;;5001255;28;20022;-76
2022/07/16 09:21:37;;;;;;;5.68;1.00;;;22.20;82.00;;;;;;4994319;28;20410;-77
2022/07/16 09:24:03;;;;;;;2.40;0.88;;;22.30;82.40;;;;;;4994397;28;20030;-76
2022/07/16 09:26:29;;;;;;;3.83;1.02;;;22.40;82.30;;;;;;4994301;28;20053;-77
2022/07/16 09:28:59;;;;;;;5.30;0.90;;;22.40;80.50;;;;;;4994593;28;20030;-77
2022/07/16 09:31:32;;;;;;;3.67;1.00;;;22.40;80.60;;;;;;4993896;28;20134;-77
2022/07/16 09:34:08;;;;;;;5.53;0.95;;;22.30;80.60;;;;;;4993793;28;20084;-77
2022/07/16 09:36:34;;;;;;;3.58;1.08;;;22.40;79.80;;;;;;5006771;28;20036;-76
2022/07/16 09:38:59;;;;;;;5.05;0.95;;;22.50;78.80;;;;;;5006747;28;20117;-77
2022/07/16 09:41:25;;;;;;;3.83;0.80;;;22.50;78.80;;;;;;4998810;28;20150;-77
2022/07/16 09:43:51;;;;;;;3.70;1.17;;;22.50;79.40;;;;;;4993537;28;20381;-77
2022/07/16 09:46:22;;;;;;;6.38;1.33;;;22.50;79.40;;;;;;4995327;28;20030;-77
2022/07/16 09:48:49;;;;;;;6.10;1.02;;;22.60;78.30;;;;;;5007763;28;20076;-77
2022/07/16 09:51:20;;;;;;;7.35;0.90;;;22.60;77.60;;;;;;5009274;28;20029;-78
2022/07/16 09:53:47;;;;;;;2.67;0.80;;;22.70;77.90;;;;;;5013235;28;20018;-77
2022/07/16 09:56:32;;;;;;;4.90;1.13;;;22.80;77.40;;;;;;5013270;28;20014;-77
2022/07/16 09:58:58;;;;;;;5.32;0.90;;;22.90;77.00;;;;;;5013103;28;20077;-76
2022/07/16 10:01:24;;;;;;;5.20;1.15;;;23.00;76.50;;;;;;5013092;28;20351;-76
2022/07/16 10:03:51;;;;;;;3.50;0.88;;;23.10;75.80;;;;;;5012984;28;20084;-77
2022/07/16 10:06:18;;;;;;;4.07;1.15;;;23.10;75.00;;;;;;4999747;28;20018;-78
2022/07/16 10:08:44;;;;;;;5.35;0.93;;;23.10;75.70;;;;;;5013199;28;20022;-76
2022/07/16 10:11:11;;;;;;;2.67;0.90;;;23.10;74.90;;;;;;5012404;28;20038;-76
2022/07/16 10:13:44;;;;;;;7.05;1.23;;;22.90;74.60;;;;;;5003600;28;20507;-77
2022/07/16 10:16:10;;;;;;;5.68;1.10;;;22.70;75.00;;;;;;5008343;28;20026;-77
2022/07/16 10:18:36;;;;;;;3.28;1.00;;;22.70;75.00;;;;;;5012502;28;20076;-76
2022/07/16 10:21:18;;;;;;;4.47;0.90;;;22.60;76.30;;;;;;5005495;28;20034;-77
2022/07/16 10:23:47;;;;;;;4.35;1.10;;;22.60;75.60;;;;;;5013211;28;20084;-76
2022/07/16 10:26:16;;;;;;;3.42;0.90;;;22.60;75.50;;;;;;4998694;28;20153;-77
2022/07/16 10:28:50;;;;;;;6.55;1.20;;;22.50;75.00;;;;;;5012846;28;20072;-76
2022/07/16 10:32:27;;;;;;;6.28;0.95;;;22.40;75.10;;;;;;5012636;28;20084;-76
2022/07/16 10:34:39;;;;;;;4.43;0.93;;;22.50;75.20;;;;;;5012420;28;20034;-76
2022/07/16 10:37:24;;;;;;;4.15;0.93;;;22.50;74.40;;;;;;5012194;28;20429;-76
2022/07/16 10:40:12;;;;;;;7.10;1.10;;;22.50;74.80;;;;;;5012230;28;20065;-76
2022/07/16 10:42:39;;;;;;;3.78;0.90;;;22.60;75.00;;;;;;5012573;28;20026;-76
2022/07/16 10:45:05;;;;;;;4.53;1.20;;;22.70;73.40;;;;;;5010316;28;20037;-76
2022/07/16 10:47:46;;;;;;;4.65;1.00;;;22.70;73.10;;;;;;5007661;28;20034;-76
2022/07/16 10:50:20;;;;;;;6.20;0.98;;;22.90;72.10;;;;;;4993288;28;20022;-76
2022/07/16 10:52:48;;;;;;;3.70;0.93;;;22.80;72.20;;;;;;4999223;28;20500;-77
2022/07/16 10:55:31;;;;;;;4.90;1.20;;;22.80;73.00;;;;;;5012072;28;20377;-77
2022/07/16 10:57:57;;;;;;;3.90;0.90;;;22.90;74.00;;;;;;4999055;28;20104;-76
2022/07/16 11:00:22;;;;;;;4.30;0.98;;;23.00;72.90;;;;;;5011568;28;20062;-76
2022/07/16 11:02:48;;;;;;;4.03;1.13;;;23.00;72.50;;;;;;5011634;28;20029;-76
2022/07/16 11:05:13;;;;;;;4.28;0.80;;;22.90;70.50;;;;;;5004046;28;20018;-75
2022/07/16 11:07:39;;;;;;;5.00;0.95;;;22.90;71.70;;;;;;5008337;28;20421;-75
2022/07/16 11:10:05;;;;;;;6.40;1.00;;;22.90;72.60;;;;;;5003113;28;20165;-75
2022/07/16 11:12:32;;;;;;;3.90;1.05;;;22.90;72.90;;;;;;5005641;28;20647;-75
2022/07/16 11:15:00;;;;;;;5.13;0.98;;;23.00;73.20;;;;;;4998834;28;20026;-74
2022/07/16 11:17:29;;;;;;;7.75;1.10;;;23.20;71.40;;;;;;5011011;28;20030;-75
2022/07/16 11:19:58;;;;;;;2.95;0.93;;;23.30;71.30;;;;;;4997745;28;20474;-74
2022/07/16 11:22:26;;;;;;;4.85;1.30;;;23.30;68.70;;;;;;5011095;28;20022;-75
2022/07/16 11:25:05;;;;;;;3.10;0.88;;;23.30;69.40;;;;;;5011189;28;20029;-76
2022/07/16 11:27:34;;;;;;;3.33;0.82;;;23.40;68.90;;;;;;4999374;28;20022;-76
2022/07/16 11:30:02;;;;;;;3.00;0.88;;;23.30;69.20;;;;;;5009801;28;20033;-76
2022/07/16 11:32:28;;;;;;;3.60;1.00;;;23.40;68.40;;;;;;5011680;28;20029;-75
2022/07/16 11:34:55;;;;;;;6.97;1.08;;;23.40;67.90;;;;;;5013108;28;20030;-75
2022/07/16 11:37:22;;;;;;;4.68;0.93;;;23.30;67.90;;;;;;5016807;28;20034;-82
2022/07/16 11:39:49;;;;;;;4.13;0.82;;;23.40;68.00;;;;;;5015464;28;20037;-80
2022/07/16 11:42:18;;;;;;;5.90;1.10;;;23.40;68.40;;;;;;5005256;28;20026;-79
2022/07/16 11:44:45;;;;;;;4.28;0.93;;;23.30;68.80;;;;;;4998256;28;20027;-80
2022/07/16 11:47:11;;;;;;;3.47;0.90;;;23.10;69.40;;;;;;5008642;28;20398;-83
2022/07/16 11:49:44;;;;;;;6.20;0.90;;;23.00;69.20;;;;;;5004711;28;20030;-80
2022/07/16 11:52:20;;;;;;;5.00;1.02;;;23.00;70.40;;;;;;4997615;28;20038;-81
2022/07/16 11:54:46;;;;;;;5.22;1.08;;;23.00;69.90;;;;;;5013853;28;20442;-84
2022/07/16 11:57:12;;;;;;;3.78;0.90;;;23.10;69.60;;;;;;5015471;28;20085;-81
2022/07/16 11:59:47;;;;;;;8.55;1.27;;;23.30;68.60;;;;;;5008554;28;20037;-83
2022/07/16 12:02:18;;;;;;;3.63;1.00;;;23.30;68.20;;;;;;5008563;28;20445;-80
2022/07/16 12:04:50;;;;;;;3.58;1.00;;;23.40;68.80;;;;;;5005711;28;20057;-79
2022/07/16 12:07:27;;;;;;;6.40;1.30;;;23.30;67.60;;;;;;5015850;28;20028;-78
2022/07/16 12:09:55;;;;;;;4.80;1.17;;;23.30;68.20;;;;;;5010514;28;20376;-77
2022/07/16 12:12:26;;;;;;;3.35;1.10;;;23.30;69.20;;;;;;5023749;28;20050;-82
2022/07/16 12:15:00;;;;;;;2.47;0.65;;;23.30;67.80;;;;;;5004474;28;20019;-79
2022/07/16 12:17:27;;;;;;;3.95;1.20;;;23.20;68.50;;;;;;5020920;28;20029;-81
2022/07/16 12:20:17;;;;;;;6.40;1.25;;;23.20;68.20;;;;;;5019368;28;20037;-82
2022/07/16 12:23:03;;;;;;;5.47;1.40;;;23.10;67.90;;;;;;5018626;28;20037;-79
2022/07/16 12:25:31;;;;;;;6.80;1.58;;;23.10;69.60;;;;;;5011846;28;20132;-80
2022/07/16 12:28:11;;;;;;;6.10;0.90;;;23.00;70.70;;;;;;5010326;28;20029;-80
2022/07/16 12:30:41;;;;;;;6.45;1.20;;;22.90;71.40;;;;;;5009779;28;20069;-80
2022/07/16 12:33:22;;;;;;;4.70;1.13;;;23.00;71.40;;;;;;5017128;28;20026;-82
2022/07/16 12:36:10;;;;;;;4.20;0.95;;;23.10;69.20;;;;;;5010820;28;20042;-81
2022/07/16 12:38:47;;;;;;;4.20;1.00;;;23.10;69.50;;;;;;5016040;28;20034;-81
2022/07/16 12:41:43;;;;;;;5.60;1.00;;;23.30;69.00;;;;;;5008747;28;20541;-80
2022/07/16 12:44:13;;;;;;;;;;;23.30;68.90;;;;;;5004975;28;20530;-81
2022/07/16 12:46:46;;;;;;;6.75;1.15;;;23.20;69.70;;;;;;5013403;28;19914;-80
2022/07/16 12:49:20;;;;;;;4.63;1.00;;;23.20;69.30;;;;;;5017850;28;20029;-82
2022/07/16 12:51:48;;;;;;;3.05;0.82;;;23.30;70.00;;;;;;5028320;28;20030;-81
2022/07/16 12:54:15;;;;;;;4.35;1.05;;;23.20;69.50;;;;;;5027306;28;20029;-82
2022/07/16 12:59:27;;;;;;;7.93;1.38;;;23.30;68.40;;;;;;5010170;28;20029;-81